createdAt,value
2016-12-12T00:01:03.519Z,1010.91
2016-12-12T00:02:17.678Z,1010.87
2016-12-12T00:03:31.509Z,1010.89
2016-12-12T00:04:45.084Z,1010.87
2016-12-12T00:05:58.674Z,1010.88
2016-12-12T00:07:12.760Z,1010.87
2016-12-12T00:08:26.295Z,1010.85
2016-12-12T00:09:40.113Z,1010.85
2016-12-12T00:10:53.735Z,1010.86
2016-12-12T00:12:07.683Z,1010.76
2016-12-12T00:13:21.757Z,1010.75
2016-12-12T00:14:35.386Z,1010.77
2016-12-12T00:15:48.931Z,1010.7
2016-12-12T00:17:02.779Z,1010.74
2016-12-12T00:18:16.362Z,1010.75
2016-12-12T00:19:30.441Z,1010.74
2016-12-12T00:20:44.080Z,1010.69
2016-12-12T00:21:57.951Z,1010.75
2016-12-12T00:23:11.758Z,1010.72
2016-12-12T00:24:25.313Z,1010.73
2016-12-12T00:25:39.467Z,1010.73
2016-12-12T00:26:53.132Z,1010.69
2016-12-12T00:28:06.826Z,1010.72
2016-12-12T00:29:20.609Z,1010.71
2016-12-12T00:30:34.131Z,1010.7
2016-12-12T00:31:48.625Z,1010.74
2016-12-12T00:33:02.186Z,1010.73
2016-12-12T00:34:15.725Z,1010.77
2016-12-12T00:35:29.561Z,1010.82
2016-12-12T00:36:43.091Z,1010.76
2016-12-12T00:37:57.057Z,1010.75
2016-12-12T00:39:10.964Z,1010.78
2016-12-12T00:40:24.560Z,1010.78
2016-12-12T00:41:38.467Z,1010.74
2016-12-12T00:42:52.097Z,1010.76
2016-12-12T00:44:06.166Z,1010.8
2016-12-12T00:45:19.997Z,1010.8
2016-12-12T00:46:33.534Z,1010.78
2016-12-12T00:47:47.058Z,1010.8
2016-12-12T00:49:00.638Z,1010.82
2016-12-12T00:50:14.754Z,1010.82
2016-12-12T00:51:28.316Z,1010.84
2016-12-12T00:52:42.105Z,1010.84
2016-12-12T00:53:56.059Z,1010.87
2016-12-12T00:56:02.833Z,1010.93
2016-12-12T00:57:16.690Z,1010.92
2016-12-12T00:58:30.315Z,1010.95
2016-12-12T00:59:44.284Z,1010.98
2016-12-12T01:00:58.109Z,1010.96
2016-12-12T01:02:12.819Z,1010.99
2016-12-12T01:03:31.672Z,1011.01
2016-12-12T01:04:54.894Z,1010.99
2016-12-12T01:06:15.460Z,1011.01
2016-12-12T01:07:36.783Z,1011.01
2016-12-12T01:08:50.801Z,1011.09
2016-12-12T01:10:04.428Z,1011.09
2016-12-12T01:11:18.031Z,1011.09
2016-12-12T01:12:31.618Z,1011.14
2016-12-12T01:13:45.162Z,1011.12
2016-12-12T01:14:58.692Z,1011.08
2016-12-12T01:16:12.388Z,1011.11
2016-12-12T01:17:26.264Z,1011.12
2016-12-12T01:18:42.002Z,1011.14
2016-12-12T01:19:55.560Z,1011.14
2016-12-12T01:21:09.207Z,1011.19
2016-12-12T11:27:46.037Z,1014.75
2016-12-12T11:28:59.706Z,1014.79
2016-12-12T11:30:13.571Z,1014.79
2016-12-12T11:31:27.109Z,1014.78
2016-12-12T11:32:40.889Z,1014.8
2016-12-12T11:33:54.890Z,1014.77
2016-12-12T11:35:08.401Z,1014.79
2016-12-12T11:36:22.054Z,1014.77
2016-12-12T11:37:35.642Z,1014.78
2016-12-12T11:38:49.164Z,1014.79
2016-12-12T11:40:03.272Z,1014.8
2016-12-12T11:41:16.817Z,1014.81
2016-12-12T11:42:30.751Z,1014.8
2016-12-12T11:43:44.442Z,1014.79
2016-12-12T11:44:58.263Z,1014.84
2016-12-12T11:46:12.087Z,1014.84
2016-12-12T11:47:25.688Z,1014.79
2016-12-12T11:48:39.491Z,1014.8
2016-12-12T11:49:53.425Z,1014.82
2016-12-12T11:51:07.142Z,1014.78
2016-12-12T11:52:20.979Z,1014.72
2016-12-12T11:53:34.559Z,1014.76
2016-12-12T11:54:48.153Z,1014.78
2016-12-12T11:56:01.963Z,1014.82
2016-12-12T11:57:15.858Z,1014.81
2016-12-12T11:58:29.747Z,1014.76
2016-12-12T11:59:43.338Z,1014.81
2016-12-12T12:00:56.988Z,1014.8
2016-12-12T12:02:10.977Z,1014.83
2016-12-12T12:03:25.109Z,1014.79
2016-12-12T12:04:38.922Z,1014.76
2016-12-12T12:05:52.959Z,1014.74
2016-12-12T12:07:06.466Z,1014.8
2016-12-12T12:08:20.008Z,1014.8
2016-12-12T12:09:33.829Z,1014.8
2016-12-12T12:10:47.673Z,1014.78
2016-12-12T12:12:01.446Z,1014.76
2016-12-12T12:13:15.000Z,1014.76
2016-12-12T12:14:28.635Z,1014.77
2016-12-12T12:15:42.439Z,1014.75
2016-12-12T12:16:56.335Z,1014.7
2016-12-12T12:18:10.315Z,1014.69
2016-12-12T12:19:23.861Z,1014.71
2016-12-12T12:20:37.482Z,1014.7
2016-12-12T12:21:51.092Z,1014.75
2016-12-12T12:23:04.968Z,1014.76
2016-12-12T12:24:18.492Z,1014.74
2016-12-12T12:25:32.076Z,1014.72
2016-12-12T12:26:47.871Z,1014.75
2016-12-12T12:28:01.428Z,1014.78
2016-12-12T12:29:15.289Z,1014.77
2016-12-12T12:30:28.850Z,1014.78
2016-12-12T12:31:42.512Z,1014.74
2016-12-12T12:32:56.714Z,1014.77
2016-12-12T12:34:10.586Z,1014.75
2016-12-12T12:35:24.474Z,1014.78
2016-12-12T12:36:38.185Z,1014.74
2016-12-12T12:37:52.133Z,1014.76
2016-12-12T12:39:05.968Z,1014.75
2016-12-12T12:40:19.488Z,1014.75
2016-12-12T12:41:33.340Z,1014.78
2016-12-12T12:42:47.037Z,1014.78
2016-12-12T12:44:00.832Z,1014.76
2016-12-12T12:45:14.373Z,1014.79
2016-12-12T12:46:27.979Z,1014.76
2016-12-12T12:47:41.619Z,1014.77
2016-12-12T12:48:55.256Z,1014.76
2016-12-12T12:50:08.806Z,1014.79
2016-12-12T12:51:22.621Z,1014.77
2016-12-12T12:52:36.195Z,1014.77
2016-12-12T12:53:50.104Z,1014.78
2016-12-12T12:55:03.866Z,1014.8
2016-12-12T12:56:17.727Z,1014.79
2016-12-12T12:57:31.491Z,1014.78
2016-12-12T12:58:45.445Z,1014.75
2016-12-12T12:59:59.360Z,1014.72
2016-12-12T13:01:12.905Z,1014.75
2016-12-12T13:02:26.988Z,1014.75
2016-12-12T13:03:43.641Z,1014.74
2016-12-12T13:04:57.497Z,1014.78
2016-12-12T13:06:11.573Z,1014.78
2016-12-12T13:07:25.167Z,1014.81
2016-12-12T13:08:38.712Z,1014.8
2016-12-12T13:09:52.364Z,1014.8
2016-12-12T13:11:05.963Z,1014.81
2016-12-12T13:12:19.627Z,1014.77
2016-12-12T13:13:33.172Z,1014.74
2016-12-12T13:14:47.221Z,1014.76
2016-12-12T13:16:00.832Z,1014.71
2016-12-12T13:17:15.032Z,1014.71
2016-12-12T13:18:28.893Z,1014.69
2016-12-12T13:19:42.918Z,1014.69
2016-12-12T13:20:56.453Z,1014.73
2016-12-12T13:22:10.072Z,1014.74
2016-12-12T13:23:23.715Z,1014.73
2016-12-12T13:24:37.611Z,1014.74
2016-12-12T13:25:51.575Z,1014.74
2016-12-12T13:27:05.454Z,1014.76
2016-12-12T13:28:19.398Z,1014.73
2016-12-12T13:29:32.922Z,1014.76
2016-12-12T13:30:46.679Z,1014.72
2016-12-12T13:32:00.245Z,1014.76
2016-12-12T13:33:14.064Z,1014.76
2016-12-12T13:34:28.328Z,1014.76
2016-12-12T13:35:41.951Z,1014.79
2016-12-12T13:36:55.922Z,1014.76
2016-12-12T13:38:10.770Z,1014.77
2016-12-12T13:39:25.058Z,1014.76
2016-12-12T13:40:38.652Z,1014.73
2016-12-12T13:41:52.402Z,1014.77
2016-12-12T13:43:08.409Z,1014.78
2016-12-12T13:44:22.366Z,1014.8
2016-12-12T13:45:36.164Z,1014.79
2016-12-12T13:46:50.415Z,1014.78
2016-12-12T13:48:03.974Z,1014.78
2016-12-12T13:49:19.394Z,1014.8
2016-12-12T13:50:33.032Z,1014.77
2016-12-12T13:51:46.882Z,1014.78
2016-12-12T13:53:01.031Z,1014.76
2016-12-12T13:54:14.678Z,1014.72
2016-12-12T13:55:29.966Z,1014.74
2016-12-12T13:56:46.834Z,1014.76
2016-12-12T13:58:00.457Z,1014.72
2016-12-12T13:59:14.049Z,1014.74
2016-12-12T14:00:27.972Z,1014.71
2016-12-12T14:01:42.085Z,1014.73
2016-12-12T14:02:56.024Z,1014.75
2016-12-12T14:04:09.703Z,1014.77
2016-12-12T14:05:23.370Z,1014.8
2016-12-12T14:06:37.764Z,1014.76
2016-12-12T14:07:52.357Z,1014.76
2016-12-12T14:09:06.385Z,1014.77
2016-12-12T14:10:20.041Z,1014.83
2016-12-12T14:11:34.222Z,1014.81
2016-12-12T14:12:48.653Z,1014.82
2016-12-12T14:14:02.666Z,1014.74
2016-12-12T14:15:16.664Z,1014.8
2016-12-12T14:16:30.371Z,1014.82
2016-12-12T14:17:44.379Z,1014.78
2016-12-12T14:18:59.570Z,1014.8
2016-12-12T14:20:14.332Z,1014.79
2016-12-12T14:21:28.079Z,1014.81
2016-12-12T14:22:41.679Z,1014.85
2016-12-12T14:23:55.912Z,1014.85
2016-12-12T14:25:29.693Z,1014.84
2016-12-12T14:26:43.515Z,1014.85
2016-12-12T14:27:57.138Z,1014.84
2016-12-12T14:29:11.538Z,1014.88
2016-12-12T14:30:25.838Z,1014.89
2016-12-12T14:31:39.842Z,1014.87
2016-12-12T14:32:53.990Z,1014.85
2016-12-12T14:34:07.810Z,1014.83
2016-12-12T14:35:22.129Z,1014.86
2016-12-12T14:36:35.800Z,1014.88
2016-12-12T14:37:49.413Z,1014.85
2016-12-12T14:39:03.557Z,1014.85
2016-12-12T14:40:17.488Z,1014.89
2016-12-12T14:41:31.133Z,1014.86
2016-12-12T14:42:44.858Z,1014.89
2016-12-12T14:43:59.101Z,1014.89
2016-12-12T14:45:13.290Z,1014.88
2016-12-12T14:46:27.577Z,1014.84
2016-12-12T14:47:41.237Z,1014.88
2016-12-12T14:48:54.834Z,1014.91
2016-12-12T14:50:08.713Z,1014.91
2016-12-12T14:51:23.578Z,1014.9
2016-12-12T14:52:37.319Z,1014.92
2016-12-12T14:53:51.059Z,1014.89
2016-12-12T14:55:04.658Z,1014.93
2016-12-12T14:56:19.258Z,1014.9
2016-12-12T14:57:33.106Z,1014.9
2016-12-12T14:58:47.097Z,1014.93
2016-12-12T15:00:03.520Z,1014.92
2016-12-12T15:01:17.175Z,1014.92
2016-12-12T15:02:31.176Z,1014.93
2016-12-12T15:03:45.265Z,1014.97
2016-12-12T15:04:59.587Z,1014.91
2016-12-12T15:06:13.534Z,1014.88
2016-12-12T15:07:29.133Z,1014.9
2016-12-12T15:08:43.016Z,1014.92
2016-12-12T15:09:57.177Z,1014.91
2016-12-12T15:11:11.008Z,1014.92
2016-12-12T15:12:24.791Z,1014.92
